sensor_id;sensor_type;location;lat;lon;timestamp;temperature;humidity
17387;DHT22;8811;52.398;9.728;2022-07-29T06:31:04;18.80;92.20
17387;DHT22;8811;52.398;9.728;2022-07-29T06:33:32;18.80;91.60
17387;DHT22;8811;52.398;9.728;2022-07-29T06:35:59;18.80;92.00
17387;DHT22;8811;52.398;9.728;2022-07-29T06:38:26;18.80;91.90
17387;DHT22;8811;52.398;9.728;2022-07-29T06:40:54;18.90;91.90
17387;DHT22;8811;52.398;9.728;2022-07-29T06:43:29;19.10;91.90
17387;DHT22;8811;52.398;9.728;2022-07-29T06:45:59;19.20;92.00
17387;DHT22;8811;52.398;9.728;2022-07-29T06:48:28;19.30;91.30
17387;DHT22;8811;52.398;9.728;2022-07-29T06:50:56;19.20;91.00
17387;DHT22;8811;52.398;9.728;2022-07-29T06:53:24;19.30;91.30
17387;DHT22;8811;52.398;9.728;2022-07-29T06:55:51;19.40;90.80
17387;DHT22;8811;52.398;9.728;2022-07-29T07:00:47;19.60;91.30
17387;DHT22;8811;52.398;9.728;2022-07-29T07:03:14;19.60;90.50
17387;DHT22;8811;52.398;9.728;2022-07-29T07:05:44;19.70;90.40
17387;DHT22;8811;52.398;9.728;2022-07-29T07:08:11;19.80;90.90
17387;DHT22;8811;52.398;9.728;2022-07-29T07:10:39;19.90;90.10
17387;DHT22;8811;52.398;9.728;2022-07-29T07:13:07;20.00;89.30
17387;DHT22;8811;52.398;9.728;2022-07-29T07:15:36;20.10;90.10
17387;DHT22;8811;52.398;9.728;2022-07-29T07:18:03;20.30;89.50
17387;DHT22;8811;52.398;9.728;2022-07-29T07:20:31;20.40;89.40
17387;DHT22;8811;52.398;9.728;2022-07-29T07:23:00;20.40;87.70
17387;DHT22;8811;52.398;9.728;2022-07-29T07:25:27;20.50;88.90
17387;DHT22;8811;52.398;9.728;2022-07-29T07:27:55;20.70;88.20
17387;DHT22;8811;52.398;9.728;2022-07-29T07:30:22;20.80;87.30
17387;DHT22;8811;52.398;9.728;2022-07-29T07:32:50;20.80;87.00
17387;DHT22;8811;52.398;9.728;2022-07-29T07:37:46;20.80;86.90
17387;DHT22;8811;52.398;9.728;2022-07-29T07:40:15;20.80;86.70
17387;DHT22;8811;52.398;9.728;2022-07-29T07:42:42;20.80;85.80
17387;DHT22;8811;52.398;9.728;2022-07-29T07:45:10;20.80;85.50
17387;DHT22;8811;52.398;9.728;2022-07-29T07:47:38;20.80;84.70
17387;DHT22;8811;52.398;9.728;2022-07-29T07:50:08;20.70;84.80
17387;DHT22;8811;52.398;9.728;2022-07-29T07:52:46;20.70;84.90
17387;DHT22;8811;52.398;9.728;2022-07-29T07:55:16;20.60;85.40
17387;DHT22;8811;52.398;9.728;2022-07-29T07:57:43;20.60;85.50
17387;DHT22;8811;52.398;9.728;2022-07-29T08:00:12;20.60;86.00
17387;DHT22;8811;52.398;9.728;2022-07-29T08:02:40;20.60;87.50
17387;DHT22;8811;52.398;9.728;2022-07-29T08:05:09;20.70;86.50
17387;DHT22;8811;52.398;9.728;2022-07-29T08:07:37;20.70;85.60
17387;DHT22;8811;52.398;9.728;2022-07-29T08:10:08;20.60;86.20
17387;DHT22;8811;52.398;9.728;2022-07-29T08:12:41;20.60;85.80
17387;DHT22;8811;52.398;9.728;2022-07-29T08:15:09;20.60;86.50
17387;DHT22;8811;52.398;9.728;2022-07-29T08:17:39;20.60;86.50
17387;DHT22;8811;52.398;9.728;2022-07-29T08:20:11;20.50;87.80
17387;DHT22;8811;52.398;9.728;2022-07-29T08:22:38;20.50;87.80
17387;DHT22;8811;52.398;9.728;2022-07-29T08:25:07;20.50;87.90
17387;DHT22;8811;52.398;9.728;2022-07-29T08:27:34;20.60;87.20
17387;DHT22;8811;52.398;9.728;2022-07-29T08:30:05;20.60;87.50
17387;DHT22;8811;52.398;9.728;2022-07-29T08:32:33;20.60;88.10
17387;DHT22;8811;52.398;9.728;2022-07-29T08:35:01;20.60;87.30
17387;DHT22;8811;52.398;9.728;2022-07-29T08:37:28;20.60;87.40
17387;DHT22;8811;52.398;9.728;2022-07-29T08:39:56;20.60;87.50
17387;DHT22;8811;52.398;9.728;2022-07-29T08:42:24;20.60;87.00
17387;DHT22;8811;52.398;9.728;2022-07-29T08:47:22;20.80;87.50
17387;DHT22;8811;52.398;9.728;2022-07-29T08:49:52;20.80;88.30
17387;DHT22;8811;52.398;9.728;2022-07-29T08:52:25;20.90;87.80
17387;DHT22;8811;52.398;9.728;2022-07-29T08:54:58;21.00;87.70
17387;DHT22;8811;52.398;9.728;2022-07-29T08:57:26;21.10;88.00
17387;DHT22;8811;52.398;9.728;2022-07-29T08:59:55;21.20;87.50
17387;DHT22;8811;52.398;9.728;2022-07-29T09:02:38;21.30;87.00
17387;DHT22;8811;52.398;9.728;2022-07-29T09:05:09;21.40;86.50
17387;DHT22;8811;52.398;9.728;2022-07-29T09:07:40;21.50;86.70
17387;DHT22;8811;52.398;9.728;2022-07-29T09:12:42;21.90;87.30
17387;DHT22;8811;52.398;9.728;2022-07-29T09:15:16;22.00;86.20
17387;DHT22;8811;52.398;9.728;2022-07-29T09:17:49;22.20;85.50
17387;DHT22;8811;52.398;9.728;2022-07-29T09:20:18;22.20;85.60
17387;DHT22;8811;52.398;9.728;2022-07-29T09:22:48;22.30;85.30
17387;DHT22;8811;52.398;9.728;2022-07-29T09:25:32;22.40;85.20
17387;DHT22;8811;52.398;9.728;2022-07-29T09:28:09;22.50;84.40
17387;DHT22;8811;52.398;9.728;2022-07-29T09:30:51;22.60;83.70
17387;DHT22;8811;52.398;9.728;2022-07-29T09:33:23;22.70;83.10
17387;DHT22;8811;52.398;9.728;2022-07-29T09:35:59;22.60;99.90
17387;DHT22;8811;52.398;9.728;2022-07-29T09:38:27;20.90;99.90
17387;DHT22;8811;52.398;9.728;2022-07-29T09:41:08;20.00;99.90
17387;DHT22;8811;52.398;9.728;2022-07-29T09:43:56;19.80;99.90
17387;DHT22;8811;52.398;9.728;2022-07-29T09:46:25;19.50;99.90
17387;DHT22;8811;52.398;9.728;2022-07-29T09:49:14;19.30;99.90
17387;DHT22;8811;52.398;9.728;2022-07-29T09:51:42;19.20;99.90
17387;DHT22;8811;52.398;9.728;2022-07-29T09:54:22;19.30;99.90
17387;DHT22;8811;52.398;9.728;2022-07-29T09:57:00;19.60;99.90
17387;DHT22;8811;52.398;9.728;2022-07-29T09:59:35;19.90;99.90
17387;DHT22;8811;52.398;9.728;2022-07-29T10:02:11;20.20;99.90
17387;DHT22;8811;52.398;9.728;2022-07-29T10:04:46;20.50;99.90
17387;DHT22;8811;52.398;9.728;2022-07-29T10:07:16;20.80;99.90
17387;DHT22;8811;52.398;9.728;2022-07-29T10:09:53;21.10;99.90
17387;DHT22;8811;52.398;9.728;2022-07-29T10:12:23;21.60;99.90
17387;DHT22;8811;52.398;9.728;2022-07-29T10:14:54;21.90;99.90
17387;DHT22;8811;52.398;9.728;2022-07-29T10:17:23;22.30;99.90
17387;DHT22;8811;52.398;9.728;2022-07-29T10:19:56;22.90;99.90
17387;DHT22;8811;52.398;9.728;2022-07-29T10:22:30;23.30;99.70
17387;DHT22;8811;52.398;9.728;2022-07-29T10:24:58;23.50;97.90
17387;DHT22;8811;52.398;9.728;2022-07-29T10:27:26;23.60;97.50
17387;DHT22;8811;52.398;9.728;2022-07-29T10:29:54;23.60;96.70
17387;DHT22;8811;52.398;9.728;2022-07-29T10:32:33;23.60;97.20
17387;DHT22;8811;52.398;9.728;2022-07-29T10:35:38;23.60;96.40
17387;DHT22;8811;52.398;9.728;2022-07-29T10:38:36;23.50;96.20
17387;DHT22;8811;52.398;9.728;2022-07-29T10:41:33;23.40;96.80
17387;DHT22;8811;52.398;9.728;2022-07-29T10:44:09;23.20;94.90
17387;DHT22;8811;52.398;9.728;2022-07-29T10:46:42;23.20;96.60
17387;DHT22;8811;52.398;9.728;2022-07-29T10:49:13;23.20;96.20
17387;DHT22;8811;52.398;9.728;2022-07-29T10:52:11;23.30;96.50
17387;DHT22;8811;52.398;9.728;2022-07-29T10:54:57;23.30;97.00
17387;DHT22;8811;52.398;9.728;2022-07-29T10:57:30;23.40;95.40
17387;DHT22;8811;52.398;9.728;2022-07-29T11:00:34;23.50;95.80
17387;DHT22;8811;52.398;9.728;2022-07-29T11:03:08;23.40;95.40
17387;DHT22;8811;52.398;9.728;2022-07-29T11:05:52;23.30;95.00
17387;DHT22;8811;52.398;9.728;2022-07-29T11:08:32;23.30;96.80
17387;DHT22;8811;52.398;9.728;2022-07-29T11:11:35;23.20;97.60
17387;DHT22;8811;52.398;9.728;2022-07-29T11:14:19;23.20;97.50
17387;DHT22;8811;52.398;9.728;2022-07-29T11:17:01;23.10;96.00
17387;DHT22;8811;52.398;9.728;2022-07-29T11:19:29;23.00;95.90
17387;DHT22;8811;52.398;9.728;2022-07-29T11:21:59;23.00;96.10
17387;DHT22;8811;52.398;9.728;2022-07-29T11:24:31;23.00;97.40
17387;DHT22;8811;52.398;9.728;2022-07-29T11:27:13;22.90;96.00
17387;DHT22;8811;52.398;9.728;2022-07-29T11:29:49;22.80;96.40
17387;DHT22;8811;52.398;9.728;2022-07-29T11:32:18;22.80;96.50
17387;DHT22;8811;52.398;9.728;2022-07-29T11:37:29;22.80;96.80
17387;DHT22;8811;52.398;9.728;2022-07-29T11:40:17;22.90;96.40
17387;DHT22;8811;52.398;9.728;2022-07-29T11:43:05;23.00;97.20
17387;DHT22;8811;52.398;9.728;2022-07-29T11:45:46;23.00;96.20
17387;DHT22;8811;52.398;9.728;2022-07-29T11:48:21;23.00;96.80
17387;DHT22;8811;52.398;9.728;2022-07-29T11:50:50;23.10;95.70
17387;DHT22;8811;52.398;9.728;2022-07-29T11:53:19;23.20;95.40
17387;DHT22;8811;52.398;9.728;2022-07-29T11:55:55;23.30;96.10
17387;DHT22;8811;52.398;9.728;2022-07-29T11:58:23;23.30;95.60
17387;DHT22;8811;52.398;9.728;2022-07-29T12:03:24;23.50;95.40
17387;DHT22;8811;52.398;9.728;2022-07-29T12:05:54;23.60;97.50
17387;DHT22;8811;52.398;9.728;2022-07-29T12:08:22;23.70;95.30
17387;DHT22;8811;52.398;9.728;2022-07-29T12:10:56;23.80;94.50
17387;DHT22;8811;52.398;9.728;2022-07-29T12:13:24;23.90;94.10
17387;DHT22;8811;52.398;9.728;2022-07-29T12:15:58;24.00;94.40
17387;DHT22;8811;52.398;9.728;2022-07-29T12:18:34;24.10;93.60
17387;DHT22;8811;52.398;9.728;2022-07-29T12:21:04;24.20;93.70
17387;DHT22;8811;52.398;9.728;2022-07-29T12:23:36;24.20;93.50
17387;DHT22;8811;52.398;9.728;2022-07-29T12:26:17;24.20;93.10
17387;DHT22;8811;52.398;9.728;2022-07-29T12:31:17;24.40;93.80
17387;DHT22;8811;52.398;9.728;2022-07-29T12:33:52;24.50;92.50
17387;DHT22;8811;52.398;9.728;2022-07-29T12:36:23;24.60;92.10
17387;DHT22;8811;52.398;9.728;2022-07-29T12:38:50;24.70;92.90
17387;DHT22;8811;52.398;9.728;2022-07-29T12:41:19;24.70;92.40
17387;DHT22;8811;52.398;9.728;2022-07-29T12:44:02;24.90;92.10
17387;DHT22;8811;52.398;9.728;2022-07-29T12:46:33;25.00;92.80
17387;DHT22;8811;52.398;9.728;2022-07-29T12:49:03;25.20;91.00
17387;DHT22;8811;52.398;9.728;2022-07-29T12:51:33;25.30;91.40
17387;DHT22;8811;52.398;9.728;2022-07-29T12:54:11;25.30;90.60
17387;DHT22;8811;52.398;9.728;2022-07-29T12:56:57;25.40;91.40
17387;DHT22;8811;52.398;9.728;2022-07-29T12:59:30;25.60;91.10
17387;DHT22;8811;52.398;9.728;2022-07-29T13:02:00;25.60;90.60
17387;DHT22;8811;52.398;9.728;2022-07-29T13:04:32;25.60;91.30
17387;DHT22;8811;52.398;9.728;2022-07-29T13:07:23;25.60;90.30
17387;DHT22;8811;52.398;9.728;2022-07-29T13:09:51;25.60;90.40
17387;DHT22;8811;52.398;9.728;2022-07-29T13:12:23;25.60;89.60
17387;DHT22;8811;52.398;9.728;2022-07-29T13:14:51;25.60;88.20
17387;DHT22;8811;52.398;9.728;2022-07-29T13:17:23;25.70;89.60
17387;DHT22;8811;52.398;9.728;2022-07-29T13:20:06;25.70;87.90
17387;DHT22;8811;52.398;9.728;2022-07-29T13:22:40;25.60;87.50
17387;DHT22;8811;52.398;9.728;2022-07-29T13:25:13;25.70;87.20
17387;DHT22;8811;52.398;9.728;2022-07-29T13:27:42;25.70;89.80
17387;DHT22;8811;52.398;9.728;2022-07-29T13:30:12;25.70;86.20
17387;DHT22;8811;52.398;9.728;2022-07-29T13:32:43;25.70;86.10
17387;DHT22;8811;52.398;9.728;2022-07-29T13:35:13;25.70;88.50
17387;DHT22;8811;52.398;9.728;2022-07-29T13:37:41;25.70;85.40
17387;DHT22;8811;52.398;9.728;2022-07-29T13:40:13;25.60;85.30
17387;DHT22;8811;52.398;9.728;2022-07-29T13:42:43;25.60;86.50
17387;DHT22;8811;52.398;9.728;2022-07-29T13:45:14;25.60;85.20
17387;DHT22;8811;52.398;9.728;2022-07-29T13:47:41;25.60;84.00
17387;DHT22;8811;52.398;9.728;2022-07-29T13:50:09;25.70;83.60
17387;DHT22;8811;52.398;9.728;2022-07-29T13:52:38;25.80;82.70
17387;DHT22;8811;52.398;9.728;2022-07-29T13:55:09;26.00;82.30
17387;DHT22;8811;52.398;9.728;2022-07-29T13:57:36;26.30;82.40
17387;DHT22;8811;52.398;9.728;2022-07-29T14:00:06;26.60;82.40
17387;DHT22;8811;52.398;9.728;2022-07-29T14:02:40;27.00;80.00
17387;DHT22;8811;52.398;9.728;2022-07-29T14:05:10;27.30;78.90
17387;DHT22;8811;52.398;9.728;2022-07-29T14:07:39;27.30;79.30
17387;DHT22;8811;52.398;9.728;2022-07-29T14:10:08;27.80;78.80
17387;DHT22;8811;52.398;9.728;2022-07-29T14:12:40;31.50;74.30
17387;DHT22;8811;52.398;9.728;2022-07-29T14:15:10;35.20;63.70
17387;DHT22;8811;52.398;9.728;2022-07-29T14:17:40;38.30;57.50
17387;DHT22;8811;52.398;9.728;2022-07-29T14:20:08;39.80;52.10
17387;DHT22;8811;52.398;9.728;2022-07-29T14:22:36;39.40;50.30
17387;DHT22;8811;52.398;9.728;2022-07-29T14:25:08;38.10;54.30
17387;DHT22;8811;52.398;9.728;2022-07-29T14:27:45;36.60;54.00
17387;DHT22;8811;52.398;9.728;2022-07-29T14:30:14;35.30;55.70
17387;DHT22;8811;52.398;9.728;2022-07-29T14:32:44;35.20;55.30
17387;DHT22;8811;52.398;9.728;2022-07-29T14:35:11;36.90;52.80
17387;DHT22;8811;52.398;9.728;2022-07-29T14:37:39;38.30;50.80
17387;DHT22;8811;52.398;9.728;2022-07-29T14:40:10;38.00;51.20
17387;DHT22;8811;52.398;9.728;2022-07-29T14:42:39;36.70;52.20
17387;DHT22;8811;52.398;9.728;2022-07-29T14:45:08;35.50;52.60
17387;DHT22;8811;52.398;9.728;2022-07-29T14:47:49;34.70;53.50
17387;DHT22;8811;52.398;9.728;2022-07-29T14:50:17;33.90;55.30
17387;DHT22;8811;52.398;9.728;2022-07-29T14:52:47;33.60;56.70
17387;DHT22;8811;52.398;9.728;2022-07-29T14:55:18;33.50;56.90
17387;DHT22;8811;52.398;9.728;2022-07-29T14:57:47;33.10;55.70
17387;DHT22;8811;52.398;9.728;2022-07-29T15:00:18;32.70;55.60
17387;DHT22;8811;52.398;9.728;2022-07-29T15:02:51;32.20;57.80
17387;DHT22;8811;52.398;9.728;2022-07-29T15:05:20;31.70;57.40
17387;DHT22;8811;52.398;9.728;2022-07-29T15:07:56;31.30;57.50
17387;DHT22;8811;52.398;9.728;2022-07-29T15:10:24;31.10;58.20
17387;DHT22;8811;52.398;9.728;2022-07-29T15:12:55;31.00;59.40
17387;DHT22;8811;52.398;9.728;2022-07-29T15:15:25;30.80;58.40
17387;DHT22;8811;52.398;9.728;2022-07-29T15:17:57;30.60;59.90
17387;DHT22;8811;52.398;9.728;2022-07-29T15:20:28;30.40;59.60
17387;DHT22;8811;52.398;9.728;2022-07-29T15:22:59;30.30;59.20
17387;DHT22;8811;52.398;9.728;2022-07-29T15:25:28;30.20;60.20
17387;DHT22;8811;52.398;9.728;2022-07-29T15:28:02;29.90;61.10
17387;DHT22;8811;52.398;9.728;2022-07-29T15:30:33;29.50;61.80
17387;DHT22;8811;52.398;9.728;2022-07-29T15:33:10;29.50;62.50
17387;DHT22;8811;52.398;9.728;2022-07-29T15:35:39;29.40;62.10
17387;DHT22;8811;52.398;9.728;2022-07-29T15:38:09;29.20;60.60
17387;DHT22;8811;52.398;9.728;2022-07-29T15:40:38;29.00;61.80
17387;DHT22;8811;52.398;9.728;2022-07-29T15:43:08;28.80;62.50
17387;DHT22;8811;52.398;9.728;2022-07-29T15:45:36;28.60;63.10
17387;DHT22;8811;52.398;9.728;2022-07-29T15:48:09;28.40;65.80
17387;DHT22;8811;52.398;9.728;2022-07-29T15:50:38;28.30;64.40
17387;DHT22;8811;52.398;9.728;2022-07-29T15:53:09;28.00;62.60
17387;DHT22;8811;52.398;9.728;2022-07-29T15:55:38;27.90;62.50
17387;DHT22;8811;52.398;9.728;2022-07-29T15:58:15;27.90;62.60
17387;DHT22;8811;52.398;9.728;2022-07-29T16:00:44;27.80;62.90
17387;DHT22;8811;52.398;9.728;2022-07-29T16:03:16;27.70;63.10
17387;DHT22;8811;52.398;9.728;2022-07-29T16:05:46;27.60;65.40
17387;DHT22;8811;52.398;9.728;2022-07-29T16:08:13;27.40;65.00
17387;DHT22;8811;52.398;9.728;2022-07-29T16:10:42;27.40;65.60
17387;DHT22;8811;52.398;9.728;2022-07-29T16:13:11;27.30;65.40
17387;DHT22;8811;52.398;9.728;2022-07-29T16:15:40;27.20;64.90
17387;DHT22;8811;52.398;9.728;2022-07-29T16:18:07;27.00;66.50
17387;DHT22;8811;52.398;9.728;2022-07-29T16:20:36;27.00;63.00
17387;DHT22;8811;52.398;9.728;2022-07-29T16:23:04;27.00;63.90
17387;DHT22;8811;52.398;9.728;2022-07-29T16:25:32;26.90;63.40
17387;DHT22;8811;52.398;9.728;2022-07-29T16:28:02;26.90;63.60
17387;DHT22;8811;52.398;9.728;2022-07-29T16:30:31;26.90;63.50
17387;DHT22;8811;52.398;9.728;2022-07-29T16:33:02;27.00;62.90
17387;DHT22;8811;52.398;9.728;2022-07-29T16:35:32;26.90;63.40
17387;DHT22;8811;52.398;9.728;2022-07-29T16:38:09;26.90;62.40
17387;DHT22;8811;52.398;9.728;2022-07-29T16:40:44;26.90;62.50
17387;DHT22;8811;52.398;9.728;2022-07-29T16:43:18;26.90;65.20
17387;DHT22;8811;52.398;9.728;2022-07-29T16:45:49;26.90;65.60
17387;DHT22;8811;52.398;9.728;2022-07-29T16:48:18;26.80;64.40
17387;DHT22;8811;52.398;9.728;2022-07-29T16:50:48;26.60;62.60
17387;DHT22;8811;52.398;9.728;2022-07-29T16:53:17;26.50;63.30
17387;DHT22;8811;52.398;9.728;2022-07-29T16:55:45;26.50;63.00
17387;DHT22;8811;52.398;9.728;2022-07-29T16:58:13;26.30;63.50
17387;DHT22;8811;52.398;9.728;2022-07-29T17:00:40;26.30;64.00
17387;DHT22;8811;52.398;9.728;2022-07-29T17:03:08;26.20;65.80
17387;DHT22;8811;52.398;9.728;2022-07-29T17:05:38;26.20;64.50
17387;DHT22;8811;52.398;9.728;2022-07-29T17:08:08;26.10;64.90
17387;DHT22;8811;52.398;9.728;2022-07-29T17:10:39;26.00;64.00
17387;DHT22;8811;52.398;9.728;2022-07-29T17:13:08;25.90;64.80
17387;DHT22;8811;52.398;9.728;2022-07-29T17:15:38;25.90;65.20
17387;DHT22;8811;52.398;9.728;2022-07-29T17:18:07;25.80;64.60
17387;DHT22;8811;52.398;9.728;2022-07-29T17:20:37;25.70;65.10
17387;DHT22;8811;52.398;9.728;2022-07-29T17:23:07;25.60;65.40
17387;DHT22;8811;52.398;9.728;2022-07-29T17:25:39;25.60;67.10
17387;DHT22;8811;52.398;9.728;2022-07-29T17:28:07;25.50;65.30
17387;DHT22;8811;52.398;9.728;2022-07-29T17:30:37;25.50;66.80
17387;DHT22;8811;52.398;9.728;2022-07-29T17:33:04;25.40;67.70
17387;DHT22;8811;52.398;9.728;2022-07-29T17:35:32;25.40;69.70
17387;DHT22;8811;52.398;9.728;2022-07-29T17:38:17;25.30;67.00
17387;DHT22;8811;52.398;9.728;2022-07-29T17:40:46;25.20;69.00
17387;DHT22;8811;52.398;9.728;2022-07-29T17:43:13;25.20;68.40
17387;DHT22;8811;52.398;9.728;2022-07-29T17:45:41;25.20;67.40
17387;DHT22;8811;52.398;9.728;2022-07-29T17:48:11;25.10;70.10
17387;DHT22;8811;52.398;9.728;2022-07-29T17:50:41;25.10;71.80
17387;DHT22;8811;52.398;9.728;2022-07-29T17:55:41;25.10;71.90
17387;DHT22;8811;52.398;9.728;2022-07-29T17:58:11;25.00;70.50
17387;DHT22;8811;52.398;9.728;2022-07-29T18:00:39;24.90;69.70
17387;DHT22;8811;52.398;9.728;2022-07-29T18:03:09;24.90;71.40
17387;DHT22;8811;52.398;9.728;2022-07-29T18:05:37;24.90;69.80
17387;DHT22;8811;52.398;9.728;2022-07-29T18:08:04;24.80;73.40
17387;DHT22;8811;52.398;9.728;2022-07-29T18:10:32;24.70;72.90
17387;DHT22;8811;52.398;9.728;2022-07-29T18:13:00;24.70;73.60
17387;DHT22;8811;52.398;9.728;2022-07-29T18:15:30;24.60;71.70
17387;DHT22;8811;52.398;9.728;2022-07-29T18:17:58;24.50;72.20
17387;DHT22;8811;52.398;9.728;2022-07-29T18:22:53;24.40;74.40
17387;DHT22;8811;52.398;9.728;2022-07-29T18:25:20;24.40;75.10
17387;DHT22;8811;52.398;9.728;2022-07-29T18:27:48;24.30;74.10
17387;DHT22;8811;52.398;9.728;2022-07-29T18:30:19;24.30;75.20
17387;DHT22;8811;52.398;9.728;2022-07-29T18:32:48;24.30;75.10
17387;DHT22;8811;52.398;9.728;2022-07-29T18:35:16;24.20;74.80
17387;DHT22;8811;52.398;9.728;2022-07-29T18:37:47;24.20;75.80
17387;DHT22;8811;52.398;9.728;2022-07-29T18:40:15;24.10;75.60
17387;DHT22;8811;52.398;9.728;2022-07-29T18:42:47;24.10;76.70
17387;DHT22;8811;52.398;9.728;2022-07-29T18:45:17;24.00;75.90
17387;DHT22;8811;52.398;9.728;2022-07-29T18:47:49;23.90;77.40
17387;DHT22;8811;52.398;9.728;2022-07-29T18:50:16;23.90;76.50
17387;DHT22;8811;52.398;9.728;2022-07-29T18:52:46;23.90;77.70
17387;DHT22;8811;52.398;9.728;2022-07-29T18:55:18;23.80;77.00
17387;DHT22;8811;52.398;9.728;2022-07-29T18:57:45;23.80;78.10
17387;DHT22;8811;52.398;9.728;2022-07-29T19:00:14;23.70;78.00
17387;DHT22;8811;52.398;9.728;2022-07-29T19:05:13;23.60;79.10
17387;DHT22;8811;52.398;9.728;2022-07-29T19:10:14;23.60;80.00
17387;DHT22;8811;52.398;9.728;2022-07-29T19:12:41;23.50;79.20
17387;DHT22;8811;52.398;9.728;2022-07-29T19:15:09;23.40;79.80
17387;DHT22;8811;52.398;9.728;2022-07-29T19:17:39;23.40;79.70
17387;DHT22;8811;52.398;9.728;2022-07-29T19:20:07;23.40;80.20
17387;DHT22;8811;52.398;9.728;2022-07-29T19:22:42;23.30;79.60
17387;DHT22;8811;52.398;9.728;2022-07-29T19:25:13;23.30;80.70
17387;DHT22;8811;52.398;9.728;2022-07-29T19:27:43;23.20;80.50
17387;DHT22;8811;52.398;9.728;2022-07-29T19:30:11;23.20;80.20
17387;DHT22;8811;52.398;9.728;2022-07-29T19:35:07;23.20;79.50
17387;DHT22;8811;52.398;9.728;2022-07-29T19:37:54;23.20;78.90
17387;DHT22;8811;52.398;9.728;2022-07-29T19:40:25;23.20;78.20
17387;DHT22;8811;52.398;9.728;2022-07-29T19:42:53;23.10;78.50
17387;DHT22;8811;52.398;9.728;2022-07-29T19:45:24;23.10;79.60
17387;DHT22;8811;52.398;9.728;2022-07-29T19:47:55;23.10;80.40
17387;DHT22;8811;52.398;9.728;2022-07-29T19:50:24;23.00;79.50
17387;DHT22;8811;52.398;9.728;2022-07-29T19:52:57;23.00;80.10
17387;DHT22;8811;52.398;9.728;2022-07-29T19:55:27;22.90;81.20
17387;DHT22;8811;52.398;9.728;2022-07-29T19:57:55;22.90;81.80
17387;DHT22;8811;52.398;9.728;2022-07-29T20:00:24;22.80;82.60
17387;DHT22;8811;52.398;9.728;2022-07-29T20:02:52;22.80;83.50
17387;DHT22;8811;52.398;9.728;2022-07-29T20:05:19;22.70;84.10
17387;DHT22;8811;52.398;9.728;2022-07-29T20:07:47;22.60;84.90
17387;DHT22;8811;52.398;9.728;2022-07-29T20:10:19;22.60;85.60
17387;DHT22;8811;52.398;9.728;2022-07-29T20:12:48;22.50;86.10
17387;DHT22;8811;52.398;9.728;2022-07-29T20:15:18;22.40;87.30
17387;DHT22;8811;52.398;9.728;2022-07-29T20:17:50;22.30;87.60
17387;DHT22;8811;52.398;9.728;2022-07-29T20:22:53;22.20;89.20
17387;DHT22;8811;52.398;9.728;2022-07-29T20:25:22;22.20;89.80
17387;DHT22;8811;52.398;9.728;2022-07-29T20:27:55;22.10;90.30
17387;DHT22;8811;52.398;9.728;2022-07-29T20:30:22;22.00;90.50
17387;DHT22;8811;52.398;9.728;2022-07-29T20:32:50;22.00;90.80
17387;DHT22;8811;52.398;9.728;2022-07-29T20:35:17;21.90;91.10
17387;DHT22;8811;52.398;9.728;2022-07-29T20:37:49;21.90;91.30
17387;DHT22;8811;52.398;9.728;2022-07-29T20:40:17;21.80;91.40
17387;DHT22;8811;52.398;9.728;2022-07-29T20:42:46;21.70;91.60
17387;DHT22;8811;52.398;9.728;2022-07-29T20:45:22;21.70;92.20
17387;DHT22;8811;52.398;9.728;2022-07-29T20:47:50;21.70;92.50
17387;DHT22;8811;52.398;9.728;2022-07-29T20:50:19;21.60;93.00
17387;DHT22;8811;52.398;9.728;2022-07-29T20:52:50;21.60;93.60
17387;DHT22;8811;52.398;9.728;2022-07-29T20:55:18;21.60;94.30
17387;DHT22;8811;52.398;9.728;2022-07-29T20:57:47;21.50;94.70
17387;DHT22;8811;52.398;9.728;2022-07-29T21:00:15;21.50;95.00
17387;DHT22;8811;52.398;9.728;2022-07-29T21:02:45;21.50;95.40
17387;DHT22;8811;52.398;9.728;2022-07-29T21:05:15;21.40;95.60
17387;DHT22;8811;52.398;9.728;2022-07-29T21:07:45;21.40;95.40
17387;DHT22;8811;52.398;9.728;2022-07-29T21:10:16;21.40;95.60
17387;DHT22;8811;52.398;9.728;2022-07-29T21:12:52;21.40;96.10
17387;DHT22;8811;52.398;9.728;2022-07-29T21:15:22;21.40;96.30
17387;DHT22;8811;52.398;9.728;2022-07-29T21:17:52;21.30;96.60
17387;DHT22;8811;52.398;9.728;2022-07-29T21:20:26;21.30;96.60
17387;DHT22;8811;52.398;9.728;2022-07-29T21:22:53;21.30;96.70
17387;DHT22;8811;52.398;9.728;2022-07-29T21:25:22;21.30;96.80
17387;DHT22;8811;52.398;9.728;2022-07-29T21:27:51;21.30;96.60
17387;DHT22;8811;52.398;9.728;2022-07-29T21:30:38;21.30;96.60
17387;DHT22;8811;52.398;9.728;2022-07-29T21:33:07;21.30;96.60
17387;DHT22;8811;52.398;9.728;2022-07-29T21:35:37;21.20;96.70
17387;DHT22;8811;52.398;9.728;2022-07-29T21:38:10;21.30;96.70
17387;DHT22;8811;52.398;9.728;2022-07-29T21:40:41;21.30;97.10
17387;DHT22;8811;52.398;9.728;2022-07-29T21:43:10;21.20;98.20
17387;DHT22;8811;52.398;9.728;2022-07-29T21:45:37;21.20;99.30
17387;DHT22;8811;52.398;9.728;2022-07-29T21:48:05;21.20;99.90
17387;DHT22;8811;52.398;9.728;2022-07-29T21:50:34;21.00;99.90
17387;DHT22;8811;52.398;9.728;2022-07-29T21:53:02;20.90;99.90
17387;DHT22;8811;52.398;9.728;2022-07-29T21:55:30;20.70;99.90
17387;DHT22;8811;52.398;9.728;2022-07-29T21:57:58;20.60;99.90
17387;DHT22;8811;52.398;9.728;2022-07-29T22:00:27;20.50;99.90
17387;DHT22;8811;52.398;9.728;2022-07-29T22:02:56;20.50;99.90
17387;DHT22;8811;52.398;9.728;2022-07-29T22:05:28;20.40;99.90
17387;DHT22;8811;52.398;9.728;2022-07-29T22:08:00;20.20;99.90
17387;DHT22;8811;52.398;9.728;2022-07-29T22:10:29;20.20;99.90
17387;DHT22;8811;52.398;9.728;2022-07-29T22:12:58;20.10;99.90
17387;DHT22;8811;52.398;9.728;2022-07-29T22:15:30;20.00;99.90
17387;DHT22;8811;52.398;9.728;2022-07-29T22:18:00;20.00;99.90
17387;DHT22;8811;52.398;9.728;2022-07-29T22:20:30;20.00;99.90
17387;DHT22;8811;52.398;9.728;2022-07-29T22:22:58;19.90;99.90
17387;DHT22;8811;52.398;9.728;2022-07-29T22:25:25;19.90;99.90
17387;DHT22;8811;52.398;9.728;2022-07-29T22:27:55;19.90;99.90
17387;DHT22;8811;52.398;9.728;2022-07-29T22:32:52;19.80;99.90
17387;DHT22;8811;52.398;9.728;2022-07-29T22:35:19;19.90;99.90
17387;DHT22;8811;52.398;9.728;2022-07-29T22:37:47;19.80;99.90
17387;DHT22;8811;52.398;9.728;2022-07-29T22:40:18;19.70;99.90
17387;DHT22;8811;52.398;9.728;2022-07-29T22:42:45;19.70;99.90
17387;DHT22;8811;52.398;9.728;2022-07-29T22:45:13;19.70;99.90
17387;DHT22;8811;52.398;9.728;2022-07-29T22:47:41;19.70;99.90
17387;DHT22;8811;52.398;9.728;2022-07-29T22:50:10;19.60;99.90
17387;DHT22;8811;52.398;9.728;2022-07-29T22:55:06;19.50;99.90
17387;DHT22;8811;52.398;9.728;2022-07-29T22:57:33;19.50;99.90
17387;DHT22;8811;52.398;9.728;2022-07-29T23:02:28;19.40;99.90
17387;DHT22;8811;52.398;9.728;2022-07-29T23:04:56;19.40;99.90
17387;DHT22;8811;52.398;9.728;2022-07-29T23:07:25;19.40;99.90
17387;DHT22;8811;52.398;9.728;2022-07-29T23:09:53;19.30;99.90
17387;DHT22;8811;52.398;9.728;2022-07-29T23:14:48;19.30;99.90
17387;DHT22;8811;52.398;9.728;2022-07-29T23:17:15;19.30;99.90
17387;DHT22;8811;52.398;9.728;2022-07-29T23:19:43;19.20;99.90
17387;DHT22;8811;52.398;9.728;2022-07-29T23:22:11;19.20;99.90